Costa Luminosa — ICGU — position and weather

sailwx.info

Track history (hours):
 
Tides and Currents Weather Stations Pressure Air Temp Water Temp Dewpoint Dewpoint Depression Visibility Wind Speed Wind Dir Waves Ship Positions

Costa Luminosa

Last reported at 2017-Feb-15 22:33 UTC. Time now 2017-Feb-21 10:08 UTC.
Position S 32°55' W 071°52'.

Length 294 m; draft 8 m.

Type: Passenger vessel. MMSI: 247257900.

Date/timePositionNaut miles runAvg speedWind from/ knotsBaromVisibWave heightAir tempDewpointWater temp
2017-Feb-15 22:33S 32°55' W 071°52'1514.8
2017-Feb-15 21:33S 33°01' W 071°36'1 1.3
2017-Feb-15 20:30S 33°02' W 071°38'0 0.0
2017-Feb-15 19:33S 33°02' W 071°38'0 0.0
2017-Feb-15 18:30S 33°02' W 071°38'0 0.0
2017-Feb-15 17:27S 33°02' W 071°38'0 0.0
2017-Feb-15 16:33S 33°02' W 071°38'0 0.0
2017-Feb-15 15:33S 33°02' W 071°38'0 0.0
2017-Feb-15 14:33S 33°02' W 071°38'0 0.0
2017-Feb-15 13:33S 33°02' W 071°38'0 0.0
2017-Feb-15 12:33S 33°02' W 071°38'0 0.0
2017-Feb-15 11:33S 33°02' W 071°38'0 0.0
2017-Feb-15 10:33S 33°02' W 071°38'0 0.0
2017-Feb-15 09:15S 33°02' W 071°38'0 0.0
2017-Feb-15 08:27S 33°02' W 071°38'0 0.0
2017-Feb-15 07:27S 33°02' W 071°38'0 0.0
2017-Feb-15 06:27S 33°02' W 071°38'0 0.0
2017-Feb-15 05:33S 33°02' W 071°38'0 0.0
2017-Feb-15 04:33S 33°02' W 071°38'0 0.0
2017-Feb-15 03:33S 33°02' W 071°38'0 0.0
2017-Feb-15 02:27S 33°02' W 071°38'0 0.0
2017-Feb-15 01:33S 33°02' W 071°38'0 0.0
2017-Feb-15 00:33S 33°02' W 071°38'0 0.0
2017-Feb-14 23:33S 33°02' W 071°38'0 0.0
2017-Feb-14 22:33S 33°02' W 071°38'0 0.0
2017-Feb-14 21:33S 33°02' W 071°38'0 0.0
2017-Feb-14 20:33S 33°02' W 071°38'0 0.0
2017-Feb-14 19:33S 33°02' W 071°38'0 0.0
2017-Feb-14 18:33S 33°02' W 071°38'0 0.0
2017-Feb-14 17:33S 33°02' W 071°38'0 0.0
2017-Feb-14 16:30S 33°02' W 071°38'0 0.0
2017-Feb-14 15:33S 33°02' W 071°38'0 0.0
2017-Feb-14 14:33S 33°02' W 071°38'0 0.0
2017-Feb-14 13:33S 33°02' W 071°38'0 0.0
2017-Feb-14 12:30S 33°02' W 071°38'0 0.0
2017-Feb-14 11:33S 33°02' W 071°38'4 3.9
2017-Feb-14 10:34S 32°58' W 071°39'  
2017-Feb-07 12:32S 54°58' W 068°48'1111.3
2017-Feb-07 11:33S 54°54' W 068°30'1313.0
2017-Feb-07 10:33S 54°53' W 068°07'7 7.2
2017-Feb-07 09:34S 54°49' W 068°17'0 0.4
2017-Feb-07 08:31S 54°49' W 068°18'0 0.0
2017-Feb-07 07:31S 54°49' W 068°18'0 0.0
2017-Feb-07 06:31S 54°49' W 068°18'0 0.0
2017-Feb-07 05:31S 54°49' W 068°18'0 0.0
2017-Feb-07 04:31S 54°49' W 068°18'0 0.0
2017-Feb-07 03:31S 54°49' W 068°18'0 0.0
2017-Feb-07 02:31S 54°49' W 068°18'0 0.0
2017-Feb-07 01:31S 54°49' W 068°18'0 0.0
2017-Feb-07 00:31S 54°49' W 068°18'0 0.0
2017-Feb-06 23:31S 54°49' W 068°18'0 0.0
2017-Feb-06 22:31S 54°49' W 068°18'0 0.0
2017-Feb-06 21:31S 54°49' W 068°18'0 0.0
2017-Feb-06 20:31S 54°49' W 068°18'0 0.0
2017-Feb-06 19:28S 54°49' W 068°18'0 0.0
2017-Feb-06 18:31S 54°49' W 068°18'0 0.0
2017-Feb-06 17:31S 54°49' W 068°18'0 0.0
2017-Feb-06 16:31S 54°49' W 068°18'0 0.0
2017-Feb-06 15:31S 54°49' W 068°18'0 0.0
2017-Feb-06 14:31S 54°49' W 068°18'0 0.0
2017-Feb-06 13:31S 54°49' W 068°18'0 0.0
2017-Feb-06 12:31S 54°49' W 068°18'0 0.0
2017-Feb-06 11:31S 54°49' W 068°18'0 0.0
2017-Feb-06 10:31S 54°49' W 068°18'0 0.0
2017-Feb-06 09:28S 54°49' W 068°18'0 0.0
2017-Feb-06 08:31S 54°49' W 068°18'0 0.0
2017-Feb-06 07:31S 54°49' W 068°18'0 0.0
2017-Feb-06 06:31S 54°49' W 068°18'0 0.0
2017-Feb-06 05:31S 54°49' W 068°18'0 0.0
2017-Feb-06 04:31S 54°49' W 068°18'0 0.0
2017-Feb-06 03:31S 54°49' W 068°18'0 0.0
2017-Feb-06 02:31S 54°49' W 068°18'0 0.0
2017-Feb-06 01:28S 54°49' W 068°18'0 0.0
2017-Feb-06 00:31S 54°49' W 068°18'0 0.0
2017-Feb-05 23:28S 54°49' W 068°18'  
Track history (hours):
 
Tides and Currents Weather Stations Pressure Air Temp Water Temp Dewpoint Dewpoint Depression Visibility Wind Speed Wind Dir Waves Ship Positions

Costa Luminosa

Last reported at 2017-Feb-15 22:33 UTC. Time now 2017-Feb-21 10:08 UTC.
Position S 32°55' W 071°52'.

Length 294 m; draft 8 m.

Type: Passenger vessel. MMSI: 247257900.

Date/timePositionNaut miles runAvg speedWind from/ knotsBaromVisibWave heightAir tempDewpointWater temp
2017-Feb-15 22:33S 32°55' W 071°52'1514.8
2017-Feb-15 21:33S 33°01' W 071°36'1 1.3
2017-Feb-15 20:30S 33°02' W 071°38'0 0.0
2017-Feb-15 19:33S 33°02' W 071°38'0 0.0
2017-Feb-15 18:30S 33°02' W 071°38'0 0.0
2017-Feb-15 17:27S 33°02' W 071°38'0 0.0
2017-Feb-15 16:33S 33°02' W 071°38'0 0.0
2017-Feb-15 15:33S 33°02' W 071°38'0 0.0
2017-Feb-15 14:33S 33°02' W 071°38'0 0.0
2017-Feb-15 13:33S 33°02' W 071°38'0 0.0
2017-Feb-15 12:33S 33°02' W 071°38'0 0.0
2017-Feb-15 11:33S 33°02' W 071°38'0 0.0
2017-Feb-15 10:33S 33°02' W 071°38'0 0.0
2017-Feb-15 09:15S 33°02' W 071°38'0 0.0
2017-Feb-15 08:27S 33°02' W 071°38'0 0.0
2017-Feb-15 07:27S 33°02' W 071°38'0 0.0
2017-Feb-15 06:27S 33°02' W 071°38'0 0.0
2017-Feb-15 05:33S 33°02' W 071°38'0 0.0
2017-Feb-15 04:33S 33°02' W 071°38'0 0.0
2017-Feb-15 03:33S 33°02' W 071°38'0 0.0
2017-Feb-15 02:27S 33°02' W 071°38'0 0.0
2017-Feb-15 01:33S 33°02' W 071°38'0 0.0
2017-Feb-15 00:33S 33°02' W 071°38'0 0.0
2017-Feb-14 23:33S 33°02' W 071°38'0 0.0
2017-Feb-14 22:33S 33°02' W 071°38'0 0.0
2017-Feb-14 21:33S 33°02' W 071°38'0 0.0
2017-Feb-14 20:33S 33°02' W 071°38'0 0.0
2017-Feb-14 19:33S 33°02' W 071°38'0 0.0
2017-Feb-14 18:33S 33°02' W 071°38'0 0.0
2017-Feb-14 17:33S 33°02' W 071°38'0 0.0
2017-Feb-14 16:30S 33°02' W 071°38'0 0.0
2017-Feb-14 15:33S 33°02' W 071°38'0 0.0
2017-Feb-14 14:33S 33°02' W 071°38'0 0.0
2017-Feb-14 13:33S 33°02' W 071°38'0 0.0
2017-Feb-14 12:30S 33°02' W 071°38'0 0.0
2017-Feb-14 11:33S 33°02' W 071°38'4 3.9
2017-Feb-14 10:34S 32°58' W 071°39'  
2017-Feb-07 12:32S 54°58' W 068°48'1111.3
2017-Feb-07 11:33S 54°54' W 068°30'1313.0
2017-Feb-07 10:33S 54°53' W 068°07'7 7.2
2017-Feb-07 09:34S 54°49' W 068°17'0 0.4
2017-Feb-07 08:31S 54°49' W 068°18'0 0.0
2017-Feb-07 07:31S 54°49' W 068°18'0 0.0
2017-Feb-07 06:31S 54°49' W 068°18'0 0.0
2017-Feb-07 05:31S 54°49' W 068°18'0 0.0
2017-Feb-07 04:31S 54°49' W 068°18'0 0.0
2017-Feb-07 03:31S 54°49' W 068°18'0 0.0
2017-Feb-07 02:31S 54°49' W 068°18'0 0.0
2017-Feb-07 01:31S 54°49' W 068°18'0 0.0
2017-Feb-07 00:31S 54°49' W 068°18'0 0.0
2017-Feb-06 23:31S 54°49' W 068°18'0 0.0
2017-Feb-06 22:31S 54°49' W 068°18'0 0.0
2017-Feb-06 21:31S 54°49' W 068°18'0 0.0
2017-Feb-06 20:31S 54°49' W 068°18'0 0.0
2017-Feb-06 19:28S 54°49' W 068°18'0 0.0
2017-Feb-06 18:31S 54°49' W 068°18'0 0.0
2017-Feb-06 17:31S 54°49' W 068°18'0 0.0
2017-Feb-06 16:31S 54°49' W 068°18'0 0.0
2017-Feb-06 15:31S 54°49' W 068°18'0 0.0
2017-Feb-06 14:31S 54°49' W 068°18'0 0.0
2017-Feb-06 13:31S 54°49' W 068°18'0 0.0
2017-Feb-06 12:31S 54°49' W 068°18'0 0.0
2017-Feb-06 11:31S 54°49' W 068°18'0 0.0
2017-Feb-06 10:31S 54°49' W 068°18'0 0.0
2017-Feb-06 09:28S 54°49' W 068°18'0 0.0
2017-Feb-06 08:31S 54°49' W 068°18'0 0.0
2017-Feb-06 07:31S 54°49' W 068°18'0 0.0
2017-Feb-06 06:31S 54°49' W 068°18'0 0.0
2017-Feb-06 05:31S 54°49' W 068°18'0 0.0
2017-Feb-06 04:31S 54°49' W 068°18'0 0.0
2017-Feb-06 03:31S 54°49' W 068°18'0 0.0
2017-Feb-06 02:31S 54°49' W 068°18'0 0.0
2017-Feb-06 01:28S 54°49' W 068°18'0 0.0
2017-Feb-06 00:31S 54°49' W 068°18'0 0.0
2017-Feb-05 23:28S 54°49' W 068°18'  

Dump ship's entire track history